Aviation Digital Data Service (ADDS)

Output produced by METARs form (1719 UTC 23 September 2020)
found at http://aviationweather.gov/metar/data/
 
KSGR 231653Z 32012KT 10SM OVC016 24/21 A2986 RMK AO2 SLP111 T02440211
KSGR 231551Z 2316/2412 32014KT P6SM BKN010 OVC015 
     TEMPO 2316/2318 OVC008 
     FM231800 34015KT P6SM BKN015 OVC020 
     FM240000 35008KT P6SM OVC015 
     FM240600 34005KT P6SM BKN015 BKN050